sensor_id;sensor_type;location;lat;lon;timestamp;P1;durP1;ratioP1;P2;durP2;ratioP2
57335;SDS011;43171;50.994;18.204;2024-01-30T00:03:38;18.00;;;7.30;;
57335;SDS011;43171;50.994;18.204;2024-01-30T00:13:20;22.60;;;8.30;;
57335;SDS011;43171;50.994;18.204;2024-01-30T00:23:02;10.40;;;6.60;;
57335;SDS011;43171;50.994;18.204;2024-01-30T00:32:45;18.70;;;8.20;;
57335;SDS011;43171;50.994;18.204;2024-01-30T00:35:11;16.10;;;9.60;;
57335;SDS011;43171;50.994;18.204;2024-01-30T00:44:56;15.30;;;7.50;;
57335;SDS011;43171;50.994;18.204;2024-01-30T00:54:40;15.30;;;6.00;;
57335;SDS011;43171;50.994;18.204;2024-01-30T01:11:39;15.60;;;6.50;;
57335;SDS011;43171;50.994;18.204;2024-01-30T01:21:21;7.30;;;6.30;;
57335;SDS011;43171;50.994;18.204;2024-01-30T01:31:04;11.50;;;7.10;;
57335;SDS011;43171;50.994;18.204;2024-01-30T01:40:49;11.20;;;6.90;;
57335;SDS011;43171;50.994;18.204;2024-01-30T01:50:33;9.00;;;6.20;;
57335;SDS011;43171;50.994;18.204;2024-01-30T02:00:18;14.70;;;6.70;;
57335;SDS011;43171;50.994;18.204;2024-01-30T02:10:01;9.90;;;5.60;;
57335;SDS011;43171;50.994;18.204;2024-01-30T02:19:46;9.80;;;6.30;;
57335;SDS011;43171;50.994;18.204;2024-01-30T02:29:29;15.00;;;9.20;;
57335;SDS011;43171;50.994;18.204;2024-01-30T02:39:11;11.70;;;7.90;;
57335;SDS011;43171;50.994;18.204;2024-01-30T02:48:54;13.40;;;9.40;;
57335;SDS011;43171;50.994;18.204;2024-01-30T02:58:37;18.40;;;9.10;;
57335;SDS011;43171;50.994;18.204;2024-01-30T03:08:19;11.20;;;7.60;;
57335;SDS011;43171;50.994;18.204;2024-01-30T03:18:02;11.80;;;8.60;;
57335;SDS011;43171;50.994;18.204;2024-01-30T03:27:48;12.10;;;8.60;;
57335;SDS011;43171;50.994;18.204;2024-01-30T03:37:31;17.00;;;9.30;;
57335;SDS011;43171;50.994;18.204;2024-01-30T03:47:13;14.20;;;7.50;;
57335;SDS011;43171;50.994;18.204;2024-01-30T03:49:40;20.00;;;11.30;;
57335;SDS011;43171;50.994;18.204;2024-01-30T03:59:22;18.90;;;8.80;;
57335;SDS011;43171;50.994;18.204;2024-01-30T04:09:09;27.70;;;8.70;;
57335;SDS011;43171;50.994;18.204;2024-01-30T04:18:52;12.60;;;8.90;;
57335;SDS011;43171;50.994;18.204;2024-01-30T04:23:43;17.80;;;11.20;;
57335;SDS011;43171;50.994;18.204;2024-01-30T04:33:24;22.80;;;9.60;;
57335;SDS011;43171;50.994;18.204;2024-01-30T04:43:08;24.40;;;9.70;;
57335;SDS011;43171;50.994;18.204;2024-01-30T04:52:52;18.50;;;9.20;;
57335;SDS011;43171;50.994;18.204;2024-01-30T05:20:30;15.70;;;7.70;;
57335;SDS011;43171;50.994;18.204;2024-01-30T05:30:11;12.30;;;8.30;;
57335;SDS011;43171;50.994;18.204;2024-01-30T05:47:10;19.30;;;12.20;;
57335;SDS011;43171;50.994;18.204;2024-01-30T05:49:36;23.60;;;14.40;;
57335;SDS011;43171;50.994;18.204;2024-01-30T05:59:19;18.60;;;10.60;;
57335;SDS011;43171;50.994;18.204;2024-01-30T06:09:05;27.80;;;10.00;;
57335;SDS011;43171;50.994;18.204;2024-01-30T06:18:48;16.00;;;9.80;;
57335;SDS011;43171;50.994;18.204;2024-01-30T06:28:31;15.20;;;10.80;;
57335;SDS011;43171;50.994;18.204;2024-01-30T06:38:13;12.80;;;9.40;;
57335;SDS011;43171;50.994;18.204;2024-01-30T06:48:00;22.10;;;11.20;;
57335;SDS011;43171;50.994;18.204;2024-01-30T06:57:42;15.60;;;10.90;;
57335;SDS011;43171;50.994;18.204;2024-01-30T07:07:24;32.80;;;18.80;;
57335;SDS011;43171;50.994;18.204;2024-01-30T07:17:11;34.90;;;12.80;;
57335;SDS011;43171;50.994;18.204;2024-01-30T07:26:53;26.80;;;12.60;;
57335;SDS011;43171;50.994;18.204;2024-01-30T07:29:19;26.20;;;14.70;;
57335;SDS011;43171;50.994;18.204;2024-01-30T07:39:01;17.00;;;9.10;;
57335;SDS011;43171;50.994;18.204;2024-01-30T07:48:44;14.60;;;8.30;;
57335;SDS011;43171;50.994;18.204;2024-01-30T07:58:26;17.30;;;7.00;;
57335;SDS011;43171;50.994;18.204;2024-01-30T08:08:09;23.90;;;11.20;;
57335;SDS011;43171;50.994;18.204;2024-01-30T08:17:52;17.00;;;7.80;;
57335;SDS011;43171;50.994;18.204;2024-01-30T08:27:42;10.20;;;7.50;;
57335;SDS011;43171;50.994;18.204;2024-01-30T08:37:25;21.40;;;8.80;;
57335;SDS011;43171;50.994;18.204;2024-01-30T08:47:09;19.50;;;7.90;;
57335;SDS011;43171;50.994;18.204;2024-01-30T08:56:50;17.30;;;7.50;;
57335;SDS011;43171;50.994;18.204;2024-01-30T09:06:35;20.40;;;8.20;;
57335;SDS011;43171;50.994;18.204;2024-01-30T09:16:17;12.70;;;5.50;;
57335;SDS011;43171;50.994;18.204;2024-01-30T09:25:59;8.90;;;5.10;;
57335;SDS011;43171;50.994;18.204;2024-01-30T09:35:41;23.40;;;5.60;;
57335;SDS011;43171;50.994;18.204;2024-01-30T09:45:25;16.50;;;7.00;;
57335;SDS011;43171;50.994;18.204;2024-01-30T09:55:11;9.70;;;6.10;;
57335;SDS011;43171;50.994;18.204;2024-01-30T10:04:56;12.50;;;6.70;;
57335;SDS011;43171;50.994;18.204;2024-01-30T10:14:40;9.50;;;4.30;;
57335;SDS011;43171;50.994;18.204;2024-01-30T10:24:27;4.80;;;2.00;;
57335;SDS011;43171;50.994;18.204;2024-01-30T10:34:10;5.70;;;4.40;;
57335;SDS011;43171;50.994;18.204;2024-01-30T10:44:04;17.90;;;5.30;;
57335;SDS011;43171;50.994;18.204;2024-01-30T10:53:53;10.10;;;5.10;;
57335;SDS011;43171;50.994;18.204;2024-01-30T11:03:44;6.70;;;5.10;;
57335;SDS011;43171;50.994;18.204;2024-01-30T11:13:31;3.60;;;3.10;;
57335;SDS011;43171;50.994;18.204;2024-01-30T11:23:23;8.50;;;4.30;;
57335;SDS011;43171;50.994;18.204;2024-01-30T11:33:09;13.90;;;4.50;;
57335;SDS011;43171;50.994;18.204;2024-01-30T11:42:55;7.80;;;3.30;;
57335;SDS011;43171;50.994;18.204;2024-01-30T11:52:37;7.90;;;4.60;;
57335;SDS011;43171;50.994;18.204;2024-01-30T12:02:20;8.50;;;5.00;;
57335;SDS011;43171;50.994;18.204;2024-01-30T12:12:02;4.20;;;3.30;;
57335;SDS011;43171;50.994;18.204;2024-01-30T12:21:53;7.90;;;4.20;;
57335;SDS011;43171;50.994;18.204;2024-01-30T12:31:36;7.10;;;4.10;;
57335;SDS011;43171;50.994;18.204;2024-01-30T12:41:19;14.40;;;6.60;;
57335;SDS011;43171;50.994;18.204;2024-01-30T12:51:04;10.00;;;5.00;;
57335;SDS011;43171;50.994;18.204;2024-01-30T13:00:46;4.90;;;3.30;;
57335;SDS011;43171;50.994;18.204;2024-01-30T13:10:29;10.60;;;3.20;;
57335;SDS011;43171;50.994;18.204;2024-01-30T13:15:19;6.20;;;3.50;;
57335;SDS011;43171;50.994;18.204;2024-01-30T13:25:08;2.80;;;2.60;;
57335;SDS011;43171;50.994;18.204;2024-01-30T13:34:49;10.40;;;5.00;;
57335;SDS011;43171;50.994;18.204;2024-01-30T13:37:15;7.70;;;4.70;;
57335;SDS011;43171;50.994;18.204;2024-01-30T13:39:40;7.70;;;4.80;;
57335;SDS011;43171;50.994;18.204;2024-01-30T13:49:22;8.70;;;4.50;;
57335;SDS011;43171;50.994;18.204;2024-01-30T13:59:06;6.20;;;3.50;;
57335;SDS011;43171;50.994;18.204;2024-01-30T14:16:06;6.50;;;4.20;;
57335;SDS011;43171;50.994;18.204;2024-01-30T14:25:48;4.70;;;4.00;;
57335;SDS011;43171;50.994;18.204;2024-01-30T14:35:32;7.80;;;5.30;;
57335;SDS011;43171;50.994;18.204;2024-01-30T14:45:15;8.10;;;4.70;;
57335;SDS011;43171;50.994;18.204;2024-01-30T14:54:58;9.00;;;6.20;;
57335;SDS011;43171;50.994;18.204;2024-01-30T14:57:24;11.20;;;7.50;;
57335;SDS011;43171;50.994;18.204;2024-01-30T15:07:06;7.30;;;5.70;;
57335;SDS011;43171;50.994;18.204;2024-01-30T15:16:48;8.30;;;5.50;;
57335;SDS011;43171;50.994;18.204;2024-01-30T15:26:31;14.40;;;5.90;;
57335;SDS011;43171;50.994;18.204;2024-01-30T15:36:12;25.70;;;14.40;;
57335;SDS011;43171;50.994;18.204;2024-01-30T15:45:58;10.60;;;6.00;;
57335;SDS011;43171;50.994;18.204;2024-01-30T15:55:45;16.30;;;7.80;;
57335;SDS011;43171;50.994;18.204;2024-01-30T16:05:27;16.40;;;10.10;;
57335;SDS011;43171;50.994;18.204;2024-01-30T16:15:11;19.40;;;11.30;;
57335;SDS011;43171;50.994;18.204;2024-01-30T16:24:54;18.40;;;10.90;;
57335;SDS011;43171;50.994;18.204;2024-01-30T16:34:36;54.60;;;24.40;;
57335;SDS011;43171;50.994;18.204;2024-01-30T16:44:18;13.80;;;9.40;;
57335;SDS011;43171;50.994;18.204;2024-01-30T16:54:01;19.70;;;13.50;;
57335;SDS011;43171;50.994;18.204;2024-01-30T17:03:43;17.10;;;10.20;;
57335;SDS011;43171;50.994;18.204;2024-01-30T17:13:29;11.30;;;9.20;;
57335;SDS011;43171;50.994;18.204;2024-01-30T17:23:11;15.70;;;10.50;;
57335;SDS011;43171;50.994;18.204;2024-01-30T17:32:54;15.10;;;11.00;;
57335;SDS011;43171;50.994;18.204;2024-01-30T17:42:36;27.30;;;10.90;;
57335;SDS011;43171;50.994;18.204;2024-01-30T17:52:19;16.40;;;9.80;;
57335;SDS011;43171;50.994;18.204;2024-01-30T18:02:02;23.60;;;10.30;;
57335;SDS011;43171;50.994;18.204;2024-01-30T18:11:46;19.90;;;13.00;;
57335;SDS011;43171;50.994;18.204;2024-01-30T18:21:28;18.20;;;11.70;;
57335;SDS011;43171;50.994;18.204;2024-01-30T18:31:10;22.80;;;9.90;;
57335;SDS011;43171;50.994;18.204;2024-01-30T18:40:52;13.40;;;8.80;;
57335;SDS011;43171;50.994;18.204;2024-01-30T18:50:41;20.80;;;11.70;;
57335;SDS011;43171;50.994;18.204;2024-01-30T19:00:23;15.00;;;9.20;;
57335;SDS011;43171;50.994;18.204;2024-01-30T19:10:06;21.10;;;11.10;;
57335;SDS011;43171;50.994;18.204;2024-01-30T19:19:49;19.90;;;11.50;;
57335;SDS011;43171;50.994;18.204;2024-01-30T19:29:31;28.30;;;13.40;;
57335;SDS011;43171;50.994;18.204;2024-01-30T19:39:13;24.10;;;13.00;;
57335;SDS011;43171;50.994;18.204;2024-01-30T19:48:55;17.90;;;8.40;;
57335;SDS011;43171;50.994;18.204;2024-01-30T19:58:37;18.10;;;10.00;;
57335;SDS011;43171;50.994;18.204;2024-01-30T20:08:19;23.00;;;12.00;;
57335;SDS011;43171;50.994;18.204;2024-01-30T20:18:07;17.40;;;10.80;;
57335;SDS011;43171;50.994;18.204;2024-01-30T20:27:52;9.10;;;6.90;;
57335;SDS011;43171;50.994;18.204;2024-01-30T20:37:39;21.70;;;12.70;;
57335;SDS011;43171;50.994;18.204;2024-01-30T20:47:22;20.00;;;12.50;;
57335;SDS011;43171;50.994;18.204;2024-01-30T20:57:07;21.60;;;14.40;;
57335;SDS011;43171;50.994;18.204;2024-01-30T21:01:58;29.30;;;17.30;;
57335;SDS011;43171;50.994;18.204;2024-01-30T21:11:39;18.50;;;11.50;;
57335;SDS011;43171;50.994;18.204;2024-01-30T21:21:22;24.20;;;12.30;;
57335;SDS011;43171;50.994;18.204;2024-01-30T21:31:07;31.80;;;17.00;;
57335;SDS011;43171;50.994;18.204;2024-01-30T21:40:51;25.70;;;17.00;;
57335;SDS011;43171;50.994;18.204;2024-01-30T21:50:34;20.20;;;14.00;;
57335;SDS011;43171;50.994;18.204;2024-01-30T21:52:59;27.40;;;17.20;;
57335;SDS011;43171;50.994;18.204;2024-01-30T22:02:41;17.80;;;13.90;;
57335;SDS011;43171;50.994;18.204;2024-01-30T22:12:24;22.10;;;12.50;;
57335;SDS011;43171;50.994;18.204;2024-01-30T22:22:06;24.90;;;14.20;;
57335;SDS011;43171;50.994;18.204;2024-01-30T22:24:31;25.50;;;16.10;;
57335;SDS011;43171;50.994;18.204;2024-01-30T22:41:30;26.40;;;12.70;;
57335;SDS011;43171;50.994;18.204;2024-01-30T22:51:13;27.30;;;12.40;;
57335;SDS011;43171;50.994;18.204;2024-01-30T23:00:54;13.00;;;5.10;;
57335;SDS011;43171;50.994;18.204;2024-01-30T23:10:39;26.50;;;16.40;;
57335;SDS011;43171;50.994;18.204;2024-01-30T23:20:22;19.20;;;13.60;;
57335;SDS011;43171;50.994;18.204;2024-01-30T23:30:05;13.70;;;7.50;;
57335;SDS011;43171;50.994;18.204;2024-01-30T23:34:56;27.20;;;17.40;;
57335;SDS011;43171;50.994;18.204;2024-01-30T23:44:44;24.10;;;12.80;;
